createdAt,value
2018-08-12T00:00:44.153Z,16.60
2018-08-12T00:03:16.618Z,16.60
2018-08-12T00:05:49.091Z,16.70
2018-08-12T00:08:21.545Z,16.60
2018-08-12T00:10:54.015Z,16.70
2018-08-12T00:13:26.479Z,16.60
2018-08-12T00:15:58.956Z,16.60
2018-08-12T00:18:31.352Z,16.60
2018-08-12T00:21:03.908Z,16.50
2018-08-12T00:23:36.316Z,16.50
2018-08-12T00:26:08.813Z,16.40
2018-08-12T00:28:41.223Z,16.60
2018-08-12T00:31:13.626Z,16.50
2018-08-12T00:33:46.073Z,16.50
2018-08-12T00:36:18.623Z,16.40
2018-08-12T00:38:51.035Z,16.40
2018-08-12T00:41:23.493Z,16.40
2018-08-12T00:43:55.902Z,16.40
2018-08-12T00:46:28.416Z,16.40
2018-08-12T00:49:00.888Z,16.40
2018-08-12T00:51:33.344Z,16.30
2018-08-12T00:54:05.848Z,16.40
2018-08-12T00:56:38.282Z,16.40
2018-08-12T00:59:11.028Z,16.40
2018-08-12T01:01:43.390Z,16.30
2018-08-12T01:04:15.813Z,16.20
2018-08-12T01:06:48.278Z,16.20
2018-08-12T01:11:55.396Z,16.20
2018-08-12T01:40:02.211Z,16.20
2018-08-12T02:20:53.757Z,16.10
2018-08-12T02:23:26.738Z,16.00
2018-08-12T03:34:36.690Z,16.10
2018-08-12T03:37:09.081Z,16.00
2018-08-12T03:39:41.458Z,15.90
2018-08-12T03:42:13.910Z,15.90
2018-08-12T03:44:46.274Z,15.90
2018-08-12T03:47:19.007Z,16.00
2018-08-12T03:49:51.471Z,15.80
2018-08-12T03:52:24.054Z,15.80
2018-08-12T03:54:56.461Z,15.90
2018-08-12T03:57:28.950Z,16.00
2018-08-12T04:00:01.404Z,15.80
2018-08-12T04:02:33.788Z,15.90
2018-08-12T04:05:06.249Z,15.90
2018-08-12T04:07:38.650Z,16.00
2018-08-12T04:10:11.568Z,16.00
2018-08-12T04:12:43.994Z,15.90
2018-08-12T04:15:16.426Z,16.00
2018-08-12T04:17:48.842Z,15.80
2018-08-12T04:20:21.270Z,15.70
2018-08-12T04:22:53.709Z,15.90
2018-08-12T04:25:26.181Z,16.00
2018-08-12T04:27:58.572Z,16.00
2018-08-12T04:30:31.405Z,16.00
2018-08-12T04:33:03.896Z,16.00
2018-08-12T04:35:36.420Z,16.00
2018-08-12T04:38:08.860Z,16.10
2018-08-12T04:40:41.454Z,16.20
2018-08-12T04:43:13.882Z,16.30
2018-08-12T04:45:46.574Z,16.20
2018-08-12T04:50:51.833Z,16.20
2018-08-12T04:53:24.204Z,16.10
2018-08-12T04:55:56.633Z,16.20
2018-08-12T04:58:29.047Z,16.40
2018-08-12T05:01:01.476Z,16.40
2018-08-12T05:03:33.870Z,16.30
2018-08-12T05:06:06.623Z,16.30
2018-08-12T05:08:39.038Z,16.30
2018-08-12T05:11:11.572Z,16.40
2018-08-12T05:13:44.162Z,16.50
2018-08-12T05:16:16.674Z,16.50
2018-08-12T05:26:26.537Z,16.90
2018-08-12T05:28:59.009Z,17.10
2018-08-12T05:31:31.800Z,17.20
2018-08-12T05:34:04.232Z,17.20
2018-08-12T05:36:37.021Z,17.10
2018-08-12T05:39:11.517Z,17.10
2018-08-12T05:41:44.238Z,16.90
2018-08-12T05:44:16.700Z,16.90
2018-08-12T05:46:49.236Z,17.00
2018-08-12T05:49:21.703Z,17.10
2018-08-12T05:51:54.506Z,17.10
2018-08-12T05:54:26.897Z,17.10
2018-08-12T05:56:59.685Z,17.10
2018-08-12T05:59:32.071Z,17.10
2018-08-12T06:02:04.580Z,17.30
2018-08-12T06:07:09.405Z,17.50
2018-08-12T06:09:41.794Z,17.40
2018-08-12T06:12:14.268Z,17.50
2018-08-12T06:14:46.697Z,17.40
2018-08-12T06:19:51.542Z,17.80
2018-08-12T06:22:24.004Z,17.90
2018-08-12T06:24:56.397Z,17.80
2018-08-12T06:27:28.850Z,17.90
2018-08-12T06:30:01.270Z,17.80
2018-08-12T06:32:33.753Z,17.90
2018-08-12T06:35:06.685Z,18.00
2018-08-12T06:37:39.105Z,18.10
2018-08-12T06:40:12.605Z,18.20
2018-08-12T06:42:45.655Z,18.30
2018-08-12T06:45:18.390Z,18.20
2018-08-12T06:50:23.150Z,18.40
2018-08-12T06:52:55.602Z,18.50
2018-08-12T06:55:28.063Z,18.40
2018-08-12T06:58:00.505Z,18.20
2018-08-12T07:00:32.891Z,18.30
2018-08-12T07:03:05.454Z,18.40
2018-08-12T07:05:37.863Z,18.40
2018-08-12T07:08:10.292Z,18.60
2018-08-12T07:13:15.269Z,20.60
2018-08-12T07:15:47.646Z,18.70
2018-08-12T07:18:20.153Z,18.80
2018-08-12T07:20:52.545Z,18.80
2018-08-12T07:23:25.094Z,18.80
2018-08-12T07:25:57.572Z,18.80
2018-08-12T07:28:29.998Z,19.00
2018-08-12T07:31:02.420Z,19.00
2018-08-12T07:33:34.838Z,19.10
2018-08-12T07:36:07.260Z,19.00
2018-08-12T07:38:39.683Z,19.10
2018-08-12T07:41:12.350Z,19.00
2018-08-12T07:46:17.485Z,19.20
2018-08-12T07:48:50.164Z,19.30
2018-08-12T07:51:22.649Z,19.40
2018-08-12T07:53:55.269Z,19.40
2018-08-12T07:56:27.909Z,19.40
2018-08-12T07:59:00.424Z,19.50
2018-08-12T08:01:32.923Z,19.60
2018-08-12T08:04:05.826Z,19.70
2018-08-12T08:06:38.469Z,19.60
2018-08-12T08:09:12.086Z,19.60
2018-08-12T08:11:44.734Z,19.60
2018-08-12T08:14:18.512Z,19.60
2018-08-12T08:16:51.114Z,19.70
2018-08-12T08:21:56.119Z,20.40
2018-08-12T08:24:28.718Z,20.20
2018-08-12T08:27:01.210Z,20.40
2018-08-12T08:29:33.822Z,20.20
2018-08-12T08:32:06.906Z,20.10
2018-08-12T08:34:39.430Z,20.00
2018-08-12T08:37:11.953Z,20.20
2018-08-12T08:39:45.289Z,20.10
2018-08-12T08:42:17.825Z,20.30
2018-08-12T08:44:50.461Z,20.30
2018-08-12T08:47:23.184Z,20.40
2018-08-12T08:49:55.903Z,20.60
2018-08-12T08:52:28.394Z,20.50
2018-08-12T08:55:00.950Z,20.60
2018-08-12T08:57:33.859Z,20.70
2018-08-12T09:00:08.930Z,20.80
2018-08-12T09:02:43.054Z,20.90
2018-08-12T09:05:16.065Z,21.10
2018-08-12T09:07:48.979Z,21.20
2018-08-12T09:10:21.513Z,21.30
2018-08-12T09:12:54.197Z,21.10
2018-08-12T09:15:26.864Z,21.20
2018-08-12T09:17:59.453Z,21.20
2018-08-12T09:20:32.029Z,21.40
2018-08-12T09:23:04.674Z,21.40
2018-08-12T09:25:37.167Z,21.40
2018-08-12T09:28:09.634Z,21.40
2018-08-12T09:30:42.241Z,21.50
2018-08-12T09:33:14.761Z,21.60
2018-08-12T09:35:48.435Z,21.70
2018-08-12T09:38:21.249Z,21.80
2018-08-12T09:40:53.815Z,21.80
2018-08-12T09:43:26.524Z,21.90
2018-08-12T09:45:59.254Z,21.70
2018-08-12T09:48:31.887Z,21.70
2018-08-12T09:51:04.446Z,21.70
2018-08-12T09:53:37.058Z,21.80
2018-08-12T09:56:09.746Z,22.10
2018-08-12T09:58:42.369Z,22.00
2018-08-12T10:01:14.981Z,22.00
2018-08-12T10:03:47.450Z,22.20
2018-08-12T10:06:20.079Z,22.20
2018-08-12T10:08:52.631Z,22.10
2018-08-12T10:11:25.109Z,22.20
2018-08-12T10:13:57.997Z,22.10
2018-08-12T10:16:30.781Z,22.50
2018-08-12T10:19:03.514Z,22.80
2018-08-12T10:21:36.317Z,22.70
2018-08-12T10:24:08.994Z,22.90
2018-08-12T10:26:41.613Z,23.10
2018-08-12T10:29:14.266Z,23.20
2018-08-12T10:31:46.805Z,23.10
2018-08-12T10:34:19.403Z,23.10
2018-08-12T10:36:51.946Z,23.30
2018-08-12T10:39:24.594Z,23.40
2018-08-12T10:41:57.237Z,23.50
2018-08-12T10:44:29.951Z,23.60
2018-08-12T10:47:02.629Z,23.80
2018-08-12T10:49:35.541Z,23.90
2018-08-12T10:52:08.111Z,23.80
2018-08-12T10:54:41.087Z,23.30
2018-08-12T10:57:13.858Z,23.40
2018-08-12T10:59:46.532Z,23.40
2018-08-12T11:02:19.131Z,23.50
2018-08-12T11:04:51.936Z,23.50
2018-08-12T11:07:24.557Z,23.50
2018-08-12T11:09:57.287Z,23.30
2018-08-12T11:12:30.039Z,23.40
2018-08-12T11:15:02.627Z,23.70
2018-08-12T11:17:35.513Z,23.70
2018-08-12T11:20:08.760Z,23.60
2018-08-12T11:22:41.957Z,23.80
2018-08-12T11:25:14.677Z,23.90
2018-08-12T11:27:47.361Z,23.90
2018-08-12T11:30:20.022Z,23.90
2018-08-12T11:32:52.885Z,24.00
2018-08-12T11:35:25.599Z,24.00
2018-08-12T11:37:59.029Z,23.90
2018-08-12T11:40:31.625Z,24.00
2018-08-12T11:43:04.482Z,24.00
2018-08-12T11:45:37.011Z,24.20
2018-08-12T11:48:09.852Z,24.20
2018-08-12T11:50:42.505Z,24.40
2018-08-12T11:53:15.314Z,24.60
2018-08-12T11:55:48.009Z,24.60
2018-08-12T11:58:20.749Z,24.60
2018-08-12T12:00:53.370Z,24.70
2018-08-12T12:03:26.164Z,24.70
2018-08-12T12:05:58.888Z,24.90
2018-08-12T12:08:31.775Z,24.90
2018-08-12T12:11:04.638Z,24.50
2018-08-12T12:13:37.321Z,24.20
2018-08-12T12:16:09.776Z,24.50
2018-08-12T12:18:42.395Z,24.50
2018-08-12T12:21:15.014Z,24.80
2018-08-12T12:23:47.685Z,25.00
2018-08-12T12:26:20.343Z,25.20
2018-08-12T12:28:52.918Z,25.30
2018-08-12T12:31:25.494Z,25.20
2018-08-12T12:33:58.042Z,24.90
2018-08-12T12:36:30.941Z,25.20
2018-08-12T12:39:06.369Z,25.00
2018-08-12T12:41:39.459Z,25.20
2018-08-12T12:44:12.133Z,25.30
2018-08-12T12:46:44.831Z,25.30
2018-08-12T12:49:17.376Z,25.50
2018-08-12T12:51:50.283Z,25.10
2018-08-12T12:54:22.782Z,24.80
2018-08-12T12:56:55.514Z,24.80
2018-08-12T12:59:29.226Z,25.10
2018-08-12T13:02:01.763Z,25.10
2018-08-12T13:04:34.743Z,25.40
2018-08-12T13:07:07.457Z,25.20
2018-08-12T13:09:40.467Z,25.10
2018-08-12T13:12:13.078Z,25.50
2018-08-12T13:14:45.932Z,25.50
2018-08-12T13:17:18.699Z,25.30
2018-08-12T13:19:51.515Z,25.40
2018-08-12T13:22:24.254Z,25.30
2018-08-12T13:24:56.938Z,25.30
2018-08-12T13:27:29.470Z,25.70
2018-08-12T13:30:02.206Z,25.70
2018-08-12T13:32:35.121Z,25.60
2018-08-12T13:35:08.161Z,25.50
2018-08-12T13:37:41.148Z,25.60
2018-08-12T13:40:15.983Z,25.50
2018-08-12T13:42:48.721Z,25.60
2018-08-12T13:45:21.189Z,26.00
2018-08-12T13:47:53.590Z,26.30
2018-08-12T13:50:26.082Z,26.50
2018-08-12T13:52:58.494Z,26.30
2018-08-12T13:55:31.141Z,26.10
2018-08-12T13:58:03.797Z,25.90
2018-08-12T14:00:37.967Z,26.00
2018-08-12T14:03:10.709Z,26.20
2018-08-12T14:05:43.439Z,26.50
2018-08-12T14:08:16.111Z,26.60
2018-08-12T14:10:48.827Z,26.20
2018-08-12T14:13:21.450Z,26.00
2018-08-12T14:15:54.770Z,26.30
2018-08-12T14:18:27.218Z,26.50
2018-08-12T14:21:00.285Z,26.60
2018-08-12T14:23:33.218Z,26.60
2018-08-12T14:26:05.945Z,26.70
2018-08-12T14:28:38.557Z,26.80
2018-08-12T14:31:11.050Z,26.40
2018-08-12T14:33:43.578Z,26.40
2018-08-12T14:36:16.281Z,26.40
2018-08-12T14:38:49.083Z,26.50
2018-08-12T14:41:22.133Z,26.60
2018-08-12T14:43:54.880Z,26.30
2018-08-12T14:46:27.752Z,26.30
2018-08-12T14:49:00.282Z,26.30
2018-08-12T14:51:33.097Z,26.20
2018-08-12T14:54:05.630Z,26.30
2018-08-12T14:56:38.112Z,26.40
2018-08-12T14:59:10.481Z,26.50
2018-08-12T15:01:43.035Z,26.70
2018-08-12T15:04:15.916Z,26.90
2018-08-12T15:06:48.571Z,27.00
2018-08-12T15:09:21.246Z,26.80
2018-08-12T15:11:53.671Z,26.60
2018-08-12T15:14:26.280Z,26.60
2018-08-12T15:16:58.857Z,26.60
2018-08-12T15:19:31.294Z,26.40
2018-08-12T15:22:07.148Z,26.30
2018-08-12T15:24:39.635Z,26.30
2018-08-12T15:27:12.147Z,26.20
2018-08-12T15:29:44.625Z,26.10
2018-08-12T15:32:17.063Z,26.20
2018-08-12T15:34:49.883Z,26.30
2018-08-12T15:37:22.378Z,26.30
2018-08-12T15:39:54.785Z,26.30
2018-08-12T15:42:27.733Z,26.30
2018-08-12T15:45:00.079Z,26.30
2018-08-12T15:47:32.619Z,26.30
2018-08-12T15:50:05.808Z,26.30
2018-08-12T15:52:39.045Z,26.30
2018-08-12T15:55:11.911Z,26.30
2018-08-12T15:57:44.349Z,26.40
2018-08-12T16:00:19.104Z,26.50
2018-08-12T16:02:51.610Z,26.40
2018-08-12T16:05:24.042Z,26.50
2018-08-12T16:07:56.548Z,26.50
2018-08-12T16:10:28.939Z,26.40
2018-08-12T16:13:01.402Z,26.50
2018-08-12T16:15:33.897Z,26.50
2018-08-12T16:18:06.331Z,26.50
2018-08-12T16:20:38.786Z,26.40
2018-08-12T16:23:11.539Z,26.40
2018-08-12T16:25:43.935Z,26.50
2018-08-12T16:28:16.407Z,26.50
2018-08-12T16:30:49.201Z,26.50
2018-08-12T16:33:21.985Z,26.40
2018-08-12T16:35:55.378Z,26.40
2018-08-12T16:38:28.627Z,26.40
2018-08-12T16:41:01.231Z,26.30
2018-08-12T16:43:33.966Z,26.20
2018-08-12T16:46:06.753Z,26.20
2018-08-12T16:48:39.435Z,26.20
2018-08-12T16:51:12.380Z,26.20
2018-08-12T16:53:45.126Z,26.10
2018-08-12T16:56:17.700Z,26.10
2018-08-12T16:58:50.234Z,26.10
2018-08-12T17:01:23.216Z,26.10
2018-08-12T17:03:56.009Z,26.00
2018-08-12T17:06:29.282Z,26.00
2018-08-12T17:09:02.022Z,26.00
2018-08-12T17:11:34.681Z,26.00
2018-08-12T17:14:08.193Z,25.90
2018-08-12T17:16:40.697Z,25.90
2018-08-12T17:19:13.169Z,25.90
2018-08-12T17:21:46.812Z,25.90
2018-08-12T17:24:19.914Z,25.90
2018-08-12T17:26:52.458Z,25.80
2018-08-12T17:29:24.958Z,25.80
2018-08-12T17:31:57.539Z,25.70
2018-08-12T17:34:30.098Z,25.60
2018-08-12T17:37:02.813Z,25.50
2018-08-12T17:39:35.246Z,25.50
2018-08-12T17:42:07.883Z,25.40
2018-08-12T17:44:40.403Z,25.30
2018-08-12T17:47:12.919Z,25.20
2018-08-12T17:49:45.447Z,25.30
2018-08-12T17:52:17.983Z,25.20
2018-08-12T17:54:50.471Z,25.20
2018-08-12T17:57:22.969Z,25.00
2018-08-12T17:59:55.597Z,25.00
2018-08-12T18:02:28.222Z,24.90
2018-08-12T18:05:00.896Z,24.80
2018-08-12T18:07:33.413Z,24.70
2018-08-12T18:10:06.388Z,24.70
2018-08-12T18:12:38.928Z,24.60
2018-08-12T18:15:12.191Z,24.50
2018-08-12T18:17:46.816Z,24.40
2018-08-12T18:20:23.569Z,24.20
2018-08-12T18:22:56.134Z,24.00
2018-08-12T18:25:28.859Z,24.00
2018-08-12T18:28:01.410Z,24.00
2018-08-12T18:30:33.922Z,24.00
2018-08-12T18:33:06.438Z,23.90
2018-08-12T18:38:11.665Z,23.80
2018-08-12T18:40:44.206Z,23.80
2018-08-12T18:43:16.815Z,23.70
2018-08-12T18:45:49.390Z,23.70
2018-08-12T18:48:21.854Z,23.60
2018-08-12T18:50:54.363Z,23.50
2018-08-12T18:53:26.837Z,23.50
2018-08-12T18:55:59.405Z,23.50
2018-08-12T18:58:31.838Z,23.50
2018-08-12T19:01:04.856Z,23.40
2018-08-12T19:03:37.352Z,23.40
2018-08-12T19:06:09.801Z,23.40
2018-08-12T19:08:42.520Z,23.30
2018-08-12T19:11:14.959Z,23.20
2018-08-12T19:13:47.482Z,23.20
2018-08-12T19:16:19.945Z,23.10
2018-08-12T19:18:53.545Z,23.10
2018-08-12T19:21:26.230Z,23.00
2018-08-12T19:23:58.650Z,23.00
2018-08-12T19:26:32.007Z,22.90
2018-08-12T19:29:04.536Z,22.80
2018-08-12T19:31:37.356Z,22.80
2018-08-12T19:34:09.855Z,22.70
2018-08-12T19:36:42.437Z,22.70
2018-08-12T19:39:15.031Z,22.70
2018-08-12T19:41:47.781Z,22.60
2018-08-12T19:44:20.518Z,22.60
2018-08-12T19:46:53.589Z,22.60
2018-08-12T19:49:26.197Z,22.40
2018-08-12T19:51:58.769Z,22.30
2018-08-12T19:54:31.374Z,22.30
2018-08-12T19:57:04.139Z,22.20
2018-08-12T19:59:36.937Z,22.20
2018-08-12T20:02:09.787Z,22.10
2018-08-12T20:09:47.477Z,22.10
2018-08-12T20:12:19.980Z,22.00
2018-08-12T20:14:52.422Z,22.00
2018-08-12T20:17:24.930Z,21.90
2018-08-12T20:22:30.125Z,21.80
2018-08-12T20:25:02.804Z,21.70
2018-08-12T20:27:37.005Z,21.70
2018-08-12T20:30:10.882Z,21.70
2018-08-12T20:32:43.345Z,21.70
2018-08-12T20:35:15.886Z,21.70
2018-08-12T20:37:48.399Z,21.70
2018-08-12T20:40:21.425Z,21.70
2018-08-12T20:42:53.926Z,21.60
2018-08-12T20:45:26.386Z,21.50
2018-08-12T20:47:59.915Z,21.50
2018-08-12T20:50:32.415Z,21.50
2018-08-12T20:53:04.924Z,21.40
2018-08-12T20:55:37.475Z,21.40
2018-08-12T20:58:09.942Z,21.40
2018-08-12T21:00:42.827Z,21.50
2018-08-12T21:03:15.278Z,21.40
2018-08-12T21:05:47.777Z,21.40
2018-08-12T21:08:20.375Z,21.30
2018-08-12T21:10:53.358Z,21.30
2018-08-12T21:13:25.899Z,21.30
2018-08-12T21:15:58.597Z,21.30
2018-08-12T21:18:31.127Z,21.30
2018-08-12T21:21:03.670Z,21.30
2018-08-12T21:23:36.144Z,21.40
2018-08-12T21:26:08.908Z,21.40
2018-08-12T21:28:41.424Z,21.30
2018-08-12T21:31:13.924Z,21.20
2018-08-12T21:33:46.346Z,21.20
2018-08-12T21:36:18.890Z,21.10
2018-08-12T21:38:51.314Z,21.10
2018-08-12T21:41:24.404Z,21.00
2018-08-12T21:43:56.928Z,20.90
2018-08-12T21:46:29.920Z,20.90
2018-08-12T21:49:02.567Z,20.80
2018-08-12T21:51:35.863Z,20.70
2018-08-12T21:54:08.335Z,20.60
2018-08-12T21:56:40.815Z,20.60
2018-08-12T21:59:13.330Z,20.50
2018-08-12T22:01:46.050Z,20.50
2018-08-12T22:04:18.727Z,20.50
2018-08-12T22:06:51.294Z,20.60
2018-08-12T22:09:25.154Z,20.50
2018-08-12T22:11:57.734Z,20.40
2018-08-12T22:14:30.245Z,20.30
2018-08-12T22:17:02.796Z,20.30
2018-08-12T22:19:35.254Z,20.30
2018-08-12T22:22:07.746Z,20.30
2018-08-12T22:24:40.206Z,20.30
2018-08-12T22:27:12.584Z,20.20
2018-08-12T23:05:22.682Z,20.00
2018-08-12T23:10:36.175Z,19.80
2018-08-12T23:13:08.944Z,19.80
2018-08-12T23:16:20.472Z,19.80
2018-08-12T23:18:53.026Z,19.90
2018-08-12T23:21:25.590Z,19.80
2018-08-12T23:23:58.032Z,19.80
2018-08-12T23:26:30.494Z,19.70
2018-08-12T23:29:02.985Z,19.70
2018-08-12T23:31:35.478Z,19.70
2018-08-12T23:34:08.192Z,19.70
2018-08-12T23:36:40.615Z,19.60
2018-08-12T23:39:13.233Z,19.60
